sensor_id;sensor_type;location;lat;lon;timestamp;temperature;humidity
31113;DHT22;17763;48.730;9.136;2023-06-04T00:00:18;16.70;73.40
31113;DHT22;17763;48.730;9.136;2023-06-04T00:02:44;16.60;74.00
31113;DHT22;17763;48.730;9.136;2023-06-04T00:05:13;16.60;74.20
31113;DHT22;17763;48.730;9.136;2023-06-04T00:07:40;16.50;74.10
31113;DHT22;17763;48.730;9.136;2023-06-04T00:10:06;16.50;74.00
31113;DHT22;17763;48.730;9.136;2023-06-04T00:12:32;16.40;73.20
31113;DHT22;17763;48.730;9.136;2023-06-04T00:14:58;16.40;73.30
31113;DHT22;17763;48.730;9.136;2023-06-04T00:17:23;16.40;73.70
31113;DHT22;17763;48.730;9.136;2023-06-04T00:19:49;16.40;74.20
31113;DHT22;17763;48.730;9.136;2023-06-04T00:22:21;16.40;75.00
31113;DHT22;17763;48.730;9.136;2023-06-04T00:24:50;16.40;75.00
31113;DHT22;17763;48.730;9.136;2023-06-04T00:27:15;16.30;74.70
31113;DHT22;17763;48.730;9.136;2023-06-04T00:29:41;16.30;73.90
31113;DHT22;17763;48.730;9.136;2023-06-04T00:32:07;16.30;74.00
31113;DHT22;17763;48.730;9.136;2023-06-04T00:34:33;16.30;75.00
31113;DHT22;17763;48.730;9.136;2023-06-04T00:36:58;16.30;76.40
31113;DHT22;17763;48.730;9.136;2023-06-04T00:39:26;16.20;75.70
31113;DHT22;17763;48.730;9.136;2023-06-04T00:41:52;16.30;76.00
31113;DHT22;17763;48.730;9.136;2023-06-04T00:44:18;16.20;76.00
31113;DHT22;17763;48.730;9.136;2023-06-04T00:46:44;16.20;76.50
31113;DHT22;17763;48.730;9.136;2023-06-04T00:49:13;16.10;76.60
31113;DHT22;17763;48.730;9.136;2023-06-04T00:51:38;16.10;76.70
31113;DHT22;17763;48.730;9.136;2023-06-04T00:54:06;16.10;76.90
31113;DHT22;17763;48.730;9.136;2023-06-04T00:56:37;16.00;77.50
31113;DHT22;17763;48.730;9.136;2023-06-04T00:59:05;16.00;77.30
31113;DHT22;17763;48.730;9.136;2023-06-04T01:01:58;16.00;77.50
31113;DHT22;17763;48.730;9.136;2023-06-04T01:04:37;16.00;77.30
31113;DHT22;17763;48.730;9.136;2023-06-04T01:07:12;15.90;77.00
31113;DHT22;17763;48.730;9.136;2023-06-04T01:09:39;15.80;77.20
31113;DHT22;17763;48.730;9.136;2023-06-04T01:12:05;15.80;77.70
31113;DHT22;17763;48.730;9.136;2023-06-04T01:14:34;15.80;77.80
31113;DHT22;17763;48.730;9.136;2023-06-04T01:17:11;15.70;78.20
31113;DHT22;17763;48.730;9.136;2023-06-04T01:25:22;15.70;78.70
31113;DHT22;17763;48.730;9.136;2023-06-04T01:27:54;15.60;79.40
31113;DHT22;17763;48.730;9.136;2023-06-04T01:30:30;15.50;78.70
31113;DHT22;17763;48.730;9.136;2023-06-04T01:32:56;15.50;79.00
31113;DHT22;17763;48.730;9.136;2023-06-04T01:35:23;15.50;78.70
31113;DHT22;17763;48.730;9.136;2023-06-04T01:37:49;15.40;78.80
31113;DHT22;17763;48.730;9.136;2023-06-04T01:40:16;15.40;79.10
31113;DHT22;17763;48.730;9.136;2023-06-04T01:42:45;15.40;79.40
31113;DHT22;17763;48.730;9.136;2023-06-04T01:45:11;15.30;80.10
31113;DHT22;17763;48.730;9.136;2023-06-04T01:47:36;15.30;79.00
31113;DHT22;17763;48.730;9.136;2023-06-04T01:50:06;15.30;79.50
31113;DHT22;17763;48.730;9.136;2023-06-04T01:52:36;15.30;79.40
31113;DHT22;17763;48.730;9.136;2023-06-04T01:55:06;15.20;79.70
31113;DHT22;17763;48.730;9.136;2023-06-04T01:57:33;15.20;80.00
31113;DHT22;17763;48.730;9.136;2023-06-04T02:00:03;15.20;80.80
31113;DHT22;17763;48.730;9.136;2023-06-04T02:02:36;15.20;80.20
31113;DHT22;17763;48.730;9.136;2023-06-04T02:05:05;15.10;79.90
31113;DHT22;17763;48.730;9.136;2023-06-04T02:07:38;15.10;79.80
31113;DHT22;17763;48.730;9.136;2023-06-04T02:10:27;15.10;79.70
31113;DHT22;17763;48.730;9.136;2023-06-04T02:13:00;15.10;79.60
31113;DHT22;17763;48.730;9.136;2023-06-04T02:15:29;15.10;79.60
31113;DHT22;17763;48.730;9.136;2023-06-04T02:17:57;15.10;80.20
31113;DHT22;17763;48.730;9.136;2023-06-04T02:20:25;15.00;80.60
31113;DHT22;17763;48.730;9.136;2023-06-04T02:22:54;15.00;80.40
31113;DHT22;17763;48.730;9.136;2023-06-04T02:25:25;15.00;80.30
31113;DHT22;17763;48.730;9.136;2023-06-04T02:27:53;14.90;80.50
31113;DHT22;17763;48.730;9.136;2023-06-04T02:30:18;14.90;80.90
31113;DHT22;17763;48.730;9.136;2023-06-04T02:32:44;14.90;80.90
31113;DHT22;17763;48.730;9.136;2023-06-04T02:35:10;14.90;81.20
31113;DHT22;17763;48.730;9.136;2023-06-04T02:37:39;14.80;80.80
31113;DHT22;17763;48.730;9.136;2023-06-04T02:40:05;14.80;80.80
31113;DHT22;17763;48.730;9.136;2023-06-04T02:42:33;14.80;80.90
31113;DHT22;17763;48.730;9.136;2023-06-04T02:45:01;14.80;80.70
31113;DHT22;17763;48.730;9.136;2023-06-04T02:47:27;14.70;80.70
31113;DHT22;17763;48.730;9.136;2023-06-04T02:49:53;14.70;81.00
31113;DHT22;17763;48.730;9.136;2023-06-04T02:52:19;14.60;81.30
31113;DHT22;17763;48.730;9.136;2023-06-04T02:54:50;14.60;81.40
31113;DHT22;17763;48.730;9.136;2023-06-04T02:57:18;14.60;82.00
31113;DHT22;17763;48.730;9.136;2023-06-04T02:59:44;14.60;82.00
31113;DHT22;17763;48.730;9.136;2023-06-04T03:02:10;14.50;82.00
31113;DHT22;17763;48.730;9.136;2023-06-04T03:04:36;14.50;81.80
31113;DHT22;17763;48.730;9.136;2023-06-04T03:07:03;14.40;81.70
31113;DHT22;17763;48.730;9.136;2023-06-04T03:09:32;14.40;82.00
31113;DHT22;17763;48.730;9.136;2023-06-04T03:12:03;14.30;82.10
31113;DHT22;17763;48.730;9.136;2023-06-04T03:14:29;14.20;82.50
31113;DHT22;17763;48.730;9.136;2023-06-04T03:17:02;14.20;82.90
31113;DHT22;17763;48.730;9.136;2023-06-04T03:19:40;14.10;83.00
31113;DHT22;17763;48.730;9.136;2023-06-04T03:22:07;14.10;83.40
31113;DHT22;17763;48.730;9.136;2023-06-04T03:24:35;14.00;83.80
31113;DHT22;17763;48.730;9.136;2023-06-04T03:27:11;14.00;83.70
31113;DHT22;17763;48.730;9.136;2023-06-04T03:29:37;14.00;83.90
31113;DHT22;17763;48.730;9.136;2023-06-04T03:32:03;14.00;84.50
31113;DHT22;17763;48.730;9.136;2023-06-04T03:34:29;13.90;85.00
31113;DHT22;17763;48.730;9.136;2023-06-04T03:36:57;13.80;84.80
31113;DHT22;17763;48.730;9.136;2023-06-04T03:39:23;13.80;84.80
31113;DHT22;17763;48.730;9.136;2023-06-04T03:41:49;13.80;84.80
31113;DHT22;17763;48.730;9.136;2023-06-04T03:44:16;13.60;84.60
31113;DHT22;17763;48.730;9.136;2023-06-04T03:46:45;13.70;84.80
31113;DHT22;17763;48.730;9.136;2023-06-04T03:49:12;13.70;84.40
31113;DHT22;17763;48.730;9.136;2023-06-04T03:51:38;13.60;84.30
31113;DHT22;17763;48.730;9.136;2023-06-04T03:54:04;13.70;84.70
31113;DHT22;17763;48.730;9.136;2023-06-04T03:56:31;13.60;84.30
31113;DHT22;17763;48.730;9.136;2023-06-04T03:58:57;13.60;83.90
31113;DHT22;17763;48.730;9.136;2023-06-04T04:01:23;13.60;83.60
31113;DHT22;17763;48.730;9.136;2023-06-04T04:03:52;13.70;83.30
31113;DHT22;17763;48.730;9.136;2023-06-04T04:06:18;13.70;82.90
31113;DHT22;17763;48.730;9.136;2023-06-04T04:08:44;13.70;82.90
31113;DHT22;17763;48.730;9.136;2023-06-04T04:11:14;13.70;82.40
31113;DHT22;17763;48.730;9.136;2023-06-04T04:13:40;13.80;82.10
31113;DHT22;17763;48.730;9.136;2023-06-04T04:16:06;13.80;81.90
31113;DHT22;17763;48.730;9.136;2023-06-04T04:18:36;13.80;81.80
31113;DHT22;17763;48.730;9.136;2023-06-04T04:21:02;13.80;81.50
31113;DHT22;17763;48.730;9.136;2023-06-04T04:23:29;13.80;81.20
31113;DHT22;17763;48.730;9.136;2023-06-04T04:25:59;13.80;81.30
31113;DHT22;17763;48.730;9.136;2023-06-04T04:28:25;13.90;81.40
31113;DHT22;17763;48.730;9.136;2023-06-04T04:30:54;13.90;81.20
31113;DHT22;17763;48.730;9.136;2023-06-04T04:33:27;13.90;81.30
31113;DHT22;17763;48.730;9.136;2023-06-04T04:35:58;14.00;81.50
31113;DHT22;17763;48.730;9.136;2023-06-04T04:38:25;13.90;81.60
31113;DHT22;17763;48.730;9.136;2023-06-04T04:40:51;14.00;81.80
31113;DHT22;17763;48.730;9.136;2023-06-04T04:45:58;14.00;81.40
31113;DHT22;17763;48.730;9.136;2023-06-04T04:48:26;14.00;81.40
31113;DHT22;17763;48.730;9.136;2023-06-04T04:50:52;14.00;81.80
31113;DHT22;17763;48.730;9.136;2023-06-04T04:53:18;14.10;81.90
31113;DHT22;17763;48.730;9.136;2023-06-04T04:55:44;14.10;81.30
31113;DHT22;17763;48.730;9.136;2023-06-04T04:58:10;14.10;80.60
31113;DHT22;17763;48.730;9.136;2023-06-04T05:00:38;14.10;80.10
31113;DHT22;17763;48.730;9.136;2023-06-04T05:03:04;14.10;80.90
31113;DHT22;17763;48.730;9.136;2023-06-04T05:05:29;14.20;81.40
31113;DHT22;17763;48.730;9.136;2023-06-04T05:07:55;14.20;81.00
31113;DHT22;17763;48.730;9.136;2023-06-04T05:10:21;14.20;82.10
31113;DHT22;17763;48.730;9.136;2023-06-04T05:12:58;14.30;81.60
31113;DHT22;17763;48.730;9.136;2023-06-04T05:15:25;14.30;80.40
31113;DHT22;17763;48.730;9.136;2023-06-04T05:17:52;14.40;79.10
31113;DHT22;17763;48.730;9.136;2023-06-04T05:20:19;14.40;79.70
31113;DHT22;17763;48.730;9.136;2023-06-04T05:22:46;14.40;78.20
31113;DHT22;17763;48.730;9.136;2023-06-04T05:25:12;14.40;79.90
31113;DHT22;17763;48.730;9.136;2023-06-04T05:27:39;14.30;80.50
31113;DHT22;17763;48.730;9.136;2023-06-04T05:30:06;14.30;80.10
31113;DHT22;17763;48.730;9.136;2023-06-04T05:32:32;14.30;82.10
31113;DHT22;17763;48.730;9.136;2023-06-04T05:34:59;14.30;80.50
31113;DHT22;17763;48.730;9.136;2023-06-04T05:37:25;14.30;80.20
31113;DHT22;17763;48.730;9.136;2023-06-04T05:39:57;14.30;80.30
31113;DHT22;17763;48.730;9.136;2023-06-04T05:42:26;14.40;81.00
31113;DHT22;17763;48.730;9.136;2023-06-04T05:44:52;14.50;81.40
31113;DHT22;17763;48.730;9.136;2023-06-04T05:47:20;14.60;81.00
31113;DHT22;17763;48.730;9.136;2023-06-04T05:49:46;14.70;80.50
31113;DHT22;17763;48.730;9.136;2023-06-04T05:52:14;14.80;80.70
31113;DHT22;17763;48.730;9.136;2023-06-04T05:54:40;14.90;80.50
31113;DHT22;17763;48.730;9.136;2023-06-04T05:57:05;14.90;78.80
31113;DHT22;17763;48.730;9.136;2023-06-04T05:59:31;15.00;77.20
31113;DHT22;17763;48.730;9.136;2023-06-04T06:01:57;15.10;77.90
31113;DHT22;17763;48.730;9.136;2023-06-04T06:04:23;15.20;77.40
31113;DHT22;17763;48.730;9.136;2023-06-04T06:06:49;15.30;77.60
31113;DHT22;17763;48.730;9.136;2023-06-04T06:09:15;15.40;78.50
31113;DHT22;17763;48.730;9.136;2023-06-04T06:11:44;15.40;75.50
31113;DHT22;17763;48.730;9.136;2023-06-04T06:14:10;15.50;76.00
31113;DHT22;17763;48.730;9.136;2023-06-04T06:16:36;15.60;76.20
31113;DHT22;17763;48.730;9.136;2023-06-04T06:19:02;15.60;76.00
31113;DHT22;17763;48.730;9.136;2023-06-04T06:21:28;15.60;75.20
31113;DHT22;17763;48.730;9.136;2023-06-04T06:23:54;15.70;75.90
31113;DHT22;17763;48.730;9.136;2023-06-04T06:26:20;15.70;76.20
31113;DHT22;17763;48.730;9.136;2023-06-04T06:28:47;15.80;75.90
31113;DHT22;17763;48.730;9.136;2023-06-04T06:31:13;15.90;75.50
31113;DHT22;17763;48.730;9.136;2023-06-04T06:33:39;16.00;74.00
31113;DHT22;17763;48.730;9.136;2023-06-04T06:36:09;16.00;74.80
31113;DHT22;17763;48.730;9.136;2023-06-04T06:38:35;16.20;74.70
31113;DHT22;17763;48.730;9.136;2023-06-04T06:41:01;16.30;73.30
31113;DHT22;17763;48.730;9.136;2023-06-04T06:43:26;16.30;72.80
31113;DHT22;17763;48.730;9.136;2023-06-04T06:45:54;16.30;72.20
31113;DHT22;17763;48.730;9.136;2023-06-04T06:48:23;16.40;73.20
31113;DHT22;17763;48.730;9.136;2023-06-04T06:50:49;16.50;73.30
31113;DHT22;17763;48.730;9.136;2023-06-04T06:53:22;16.70;73.50
31113;DHT22;17763;48.730;9.136;2023-06-04T06:55:51;16.70;71.40
31113;DHT22;17763;48.730;9.136;2023-06-04T06:58:17;16.80;71.90
31113;DHT22;17763;48.730;9.136;2023-06-04T07:00:42;16.90;72.40
31113;DHT22;17763;48.730;9.136;2023-06-04T07:03:08;17.00;72.10
31113;DHT22;17763;48.730;9.136;2023-06-04T07:05:34;17.20;72.80
31113;DHT22;17763;48.730;9.136;2023-06-04T07:08:02;17.30;72.80
31113;DHT22;17763;48.730;9.136;2023-06-04T07:10:28;17.50;71.90
31113;DHT22;17763;48.730;9.136;2023-06-04T07:12:56;17.60;70.80
31113;DHT22;17763;48.730;9.136;2023-06-04T07:15:22;17.70;70.90
31113;DHT22;17763;48.730;9.136;2023-06-04T07:17:48;17.80;71.00
31113;DHT22;17763;48.730;9.136;2023-06-04T07:20:14;17.90;69.20
31113;DHT22;17763;48.730;9.136;2023-06-04T07:22:42;17.90;70.20
31113;DHT22;17763;48.730;9.136;2023-06-04T07:25:08;18.00;70.70
31113;DHT22;17763;48.730;9.136;2023-06-04T07:27:36;18.00;69.60
31113;DHT22;17763;48.730;9.136;2023-06-04T07:30:02;18.00;70.20
31113;DHT22;17763;48.730;9.136;2023-06-04T07:32:28;18.10;70.00
31113;DHT22;17763;48.730;9.136;2023-06-04T07:34:54;18.10;69.60
31113;DHT22;17763;48.730;9.136;2023-06-04T07:37:20;18.20;68.00
31113;DHT22;17763;48.730;9.136;2023-06-04T07:39:45;18.20;67.90
31113;DHT22;17763;48.730;9.136;2023-06-04T07:42:11;18.20;68.00
31113;DHT22;17763;48.730;9.136;2023-06-04T07:44:39;18.20;67.70
31113;DHT22;17763;48.730;9.136;2023-06-04T07:47:05;18.20;68.40
31113;DHT22;17763;48.730;9.136;2023-06-04T07:49:33;18.10;67.60
31113;DHT22;17763;48.730;9.136;2023-06-04T07:51:59;18.10;66.80
31113;DHT22;17763;48.730;9.136;2023-06-04T07:54:25;18.00;67.30
31113;DHT22;17763;48.730;9.136;2023-06-04T07:56:51;18.10;68.80
31113;DHT22;17763;48.730;9.136;2023-06-04T07:59:24;18.10;67.70
31113;DHT22;17763;48.730;9.136;2023-06-04T08:01:52;18.20;68.60
31113;DHT22;17763;48.730;9.136;2023-06-04T08:04:19;18.40;69.30
31113;DHT22;17763;48.730;9.136;2023-06-04T08:06:47;18.30;67.40
31113;DHT22;17763;48.730;9.136;2023-06-04T08:09:15;18.30;67.60
31113;DHT22;17763;48.730;9.136;2023-06-04T08:11:45;18.20;67.70
31113;DHT22;17763;48.730;9.136;2023-06-04T08:14:13;18.30;68.20
31113;DHT22;17763;48.730;9.136;2023-06-04T08:16:40;18.20;68.80
31113;DHT22;17763;48.730;9.136;2023-06-04T08:19:06;18.10;68.70
31113;DHT22;17763;48.730;9.136;2023-06-04T08:21:35;18.10;69.00
31113;DHT22;17763;48.730;9.136;2023-06-04T08:24:03;18.00;68.50
31113;DHT22;17763;48.730;9.136;2023-06-04T08:26:32;18.00;67.90
31113;DHT22;17763;48.730;9.136;2023-06-04T08:28:58;18.10;67.80
31113;DHT22;17763;48.730;9.136;2023-06-04T08:31:26;18.20;67.00
31113;DHT22;17763;48.730;9.136;2023-06-04T08:33:52;18.30;67.40
31113;DHT22;17763;48.730;9.136;2023-06-04T08:36:17;18.30;66.50
31113;DHT22;17763;48.730;9.136;2023-06-04T08:38:43;18.40;66.40
31113;DHT22;17763;48.730;9.136;2023-06-04T08:41:13;18.50;66.50
31113;DHT22;17763;48.730;9.136;2023-06-04T08:43:42;18.50;66.50
31113;DHT22;17763;48.730;9.136;2023-06-04T08:46:09;18.60;66.80
31113;DHT22;17763;48.730;9.136;2023-06-04T08:48:40;18.60;66.30
31113;DHT22;17763;48.730;9.136;2023-06-04T08:51:07;18.70;65.50
31113;DHT22;17763;48.730;9.136;2023-06-04T08:53:34;18.80;66.60
31113;DHT22;17763;48.730;9.136;2023-06-04T08:56:03;18.90;65.10
31113;DHT22;17763;48.730;9.136;2023-06-04T08:58:32;18.90;66.50
31113;DHT22;17763;48.730;9.136;2023-06-04T09:01:01;19.10;67.20
31113;DHT22;17763;48.730;9.136;2023-06-04T09:03:29;19.10;66.00
31113;DHT22;17763;48.730;9.136;2023-06-04T09:05:59;19.20;64.50
31113;DHT22;17763;48.730;9.136;2023-06-04T09:08:25;19.30;65.40
31113;DHT22;17763;48.730;9.136;2023-06-04T09:10:54;19.40;65.90
31113;DHT22;17763;48.730;9.136;2023-06-04T09:13:29;19.40;65.50
31113;DHT22;17763;48.730;9.136;2023-06-04T09:16:01;19.60;64.00
31113;DHT22;17763;48.730;9.136;2023-06-04T09:18:26;19.70;63.80
31113;DHT22;17763;48.730;9.136;2023-06-04T09:21:06;19.70;64.40
31113;DHT22;17763;48.730;9.136;2023-06-04T09:23:50;19.80;62.70
31113;DHT22;17763;48.730;9.136;2023-06-04T09:26:16;19.80;63.20
31113;DHT22;17763;48.730;9.136;2023-06-04T09:28:45;19.80;63.00
31113;DHT22;17763;48.730;9.136;2023-06-04T09:31:17;19.90;62.10
31113;DHT22;17763;48.730;9.136;2023-06-04T09:33:44;19.90;63.00
31113;DHT22;17763;48.730;9.136;2023-06-04T09:36:10;20.00;62.70
31113;DHT22;17763;48.730;9.136;2023-06-04T09:38:36;20.10;62.30
31113;DHT22;17763;48.730;9.136;2023-06-04T09:41:02;20.20;63.70
31113;DHT22;17763;48.730;9.136;2023-06-04T09:43:36;20.20;63.80
31113;DHT22;17763;48.730;9.136;2023-06-04T09:46:14;20.30;62.10
31113;DHT22;17763;48.730;9.136;2023-06-04T09:48:41;20.30;61.10
31113;DHT22;17763;48.730;9.136;2023-06-04T09:51:15;20.40;61.70
31113;DHT22;17763;48.730;9.136;2023-06-04T09:53:56;20.40;63.10
31113;DHT22;17763;48.730;9.136;2023-06-04T09:56:22;20.40;61.50
31113;DHT22;17763;48.730;9.136;2023-06-04T09:58:57;20.40;61.10
31113;DHT22;17763;48.730;9.136;2023-06-04T10:01:25;20.50;62.10
31113;DHT22;17763;48.730;9.136;2023-06-04T10:03:53;20.50;62.20
31113;DHT22;17763;48.730;9.136;2023-06-04T10:06:22;20.60;62.10
31113;DHT22;17763;48.730;9.136;2023-06-04T10:08:51;20.70;61.70
31113;DHT22;17763;48.730;9.136;2023-06-04T10:11:20;20.80;61.70
31113;DHT22;17763;48.730;9.136;2023-06-04T10:14:00;20.90;60.90
31113;DHT22;17763;48.730;9.136;2023-06-04T10:16:31;20.90;60.00
31113;DHT22;17763;48.730;9.136;2023-06-04T10:18:57;21.00;59.80
31113;DHT22;17763;48.730;9.136;2023-06-04T10:21:26;20.90;58.60
31113;DHT22;17763;48.730;9.136;2023-06-04T10:23:51;20.90;58.40
31113;DHT22;17763;48.730;9.136;2023-06-04T10:26:17;20.90;58.40
31113;DHT22;17763;48.730;9.136;2023-06-04T10:28:46;20.90;58.90
31113;DHT22;17763;48.730;9.136;2023-06-04T10:31:12;20.90;59.40
31113;DHT22;17763;48.730;9.136;2023-06-04T10:33:39;20.90;58.80
31113;DHT22;17763;48.730;9.136;2023-06-04T10:36:25;21.00;59.20
31113;DHT22;17763;48.730;9.136;2023-06-04T10:38:52;21.10;59.20
31113;DHT22;17763;48.730;9.136;2023-06-04T10:41:24;21.10;59.00
31113;DHT22;17763;48.730;9.136;2023-06-04T10:44:00;21.20;58.60
31113;DHT22;17763;48.730;9.136;2023-06-04T10:46:26;21.20;58.00
31113;DHT22;17763;48.730;9.136;2023-06-04T10:49:02;21.20;59.10
31113;DHT22;17763;48.730;9.136;2023-06-04T10:51:32;21.20;58.60
31113;DHT22;17763;48.730;9.136;2023-06-04T10:53:59;21.30;58.70
31113;DHT22;17763;48.730;9.136;2023-06-04T10:56:33;21.30;59.30
31113;DHT22;17763;48.730;9.136;2023-06-04T10:59:14;21.40;58.00
31113;DHT22;17763;48.730;9.136;2023-06-04T11:01:40;21.50;58.60
31113;DHT22;17763;48.730;9.136;2023-06-04T11:04:06;21.50;57.70
31113;DHT22;17763;48.730;9.136;2023-06-04T11:06:31;21.50;58.00
31113;DHT22;17763;48.730;9.136;2023-06-04T11:09:04;21.60;56.70
31113;DHT22;17763;48.730;9.136;2023-06-04T11:11:36;21.60;57.30
31113;DHT22;17763;48.730;9.136;2023-06-04T11:14:09;21.60;57.40
31113;DHT22;17763;48.730;9.136;2023-06-04T11:16:35;21.60;58.00
31113;DHT22;17763;48.730;9.136;2023-06-04T11:19:00;21.60;58.40
31113;DHT22;17763;48.730;9.136;2023-06-04T11:21:27;21.60;55.70
31113;DHT22;17763;48.730;9.136;2023-06-04T11:23:59;21.60;56.10
31113;DHT22;17763;48.730;9.136;2023-06-04T11:26:36;21.60;57.00
31113;DHT22;17763;48.730;9.136;2023-06-04T11:29:13;21.60;56.30
31113;DHT22;17763;48.730;9.136;2023-06-04T11:31:42;21.70;57.40
31113;DHT22;17763;48.730;9.136;2023-06-04T11:34:08;21.80;57.30
31113;DHT22;17763;48.730;9.136;2023-06-04T11:36:34;21.90;57.40
31113;DHT22;17763;48.730;9.136;2023-06-04T11:39:03;22.00;56.50
31113;DHT22;17763;48.730;9.136;2023-06-04T11:41:36;22.00;57.50
31113;DHT22;17763;48.730;9.136;2023-06-04T11:44:04;22.10;57.80
31113;DHT22;17763;48.730;9.136;2023-06-04T11:46:43;22.20;56.80
31113;DHT22;17763;48.730;9.136;2023-06-04T11:49:13;22.30;57.50
31113;DHT22;17763;48.730;9.136;2023-06-04T11:51:48;22.30;56.80
31113;DHT22;17763;48.730;9.136;2023-06-04T11:54:16;22.30;56.30
31113;DHT22;17763;48.730;9.136;2023-06-04T11:56:45;22.30;53.30
31113;DHT22;17763;48.730;9.136;2023-06-04T11:59:14;22.30;55.00
31113;DHT22;17763;48.730;9.136;2023-06-04T12:01:41;22.30;53.30
31113;DHT22;17763;48.730;9.136;2023-06-04T12:04:18;22.30;54.30
31113;DHT22;17763;48.730;9.136;2023-06-04T12:06:54;22.20;54.50
31113;DHT22;17763;48.730;9.136;2023-06-04T12:09:25;22.20;53.90
31113;DHT22;17763;48.730;9.136;2023-06-04T12:12:00;22.20;53.20
31113;DHT22;17763;48.730;9.136;2023-06-04T12:14:27;22.20;54.30
31113;DHT22;17763;48.730;9.136;2023-06-04T12:16:59;22.30;55.50
31113;DHT22;17763;48.730;9.136;2023-06-04T12:19:25;22.30;53.30
31113;DHT22;17763;48.730;9.136;2023-06-04T12:22:04;22.30;54.20
31113;DHT22;17763;48.730;9.136;2023-06-04T12:24:51;22.30;52.70
31113;DHT22;17763;48.730;9.136;2023-06-04T12:27:21;22.30;53.40
31113;DHT22;17763;48.730;9.136;2023-06-04T12:30:01;22.40;52.60
31113;DHT22;17763;48.730;9.136;2023-06-04T12:32:27;22.40;52.40
31113;DHT22;17763;48.730;9.136;2023-06-04T12:34:53;22.50;53.70
31113;DHT22;17763;48.730;9.136;2023-06-04T12:37:22;22.60;53.40
31113;DHT22;17763;48.730;9.136;2023-06-04T12:39:50;22.70;53.20
31113;DHT22;17763;48.730;9.136;2023-06-04T12:42:23;22.80;53.90
31113;DHT22;17763;48.730;9.136;2023-06-04T12:44:55;22.80;52.70
31113;DHT22;17763;48.730;9.136;2023-06-04T12:47:21;22.70;50.70
31113;DHT22;17763;48.730;9.136;2023-06-04T12:49:47;22.80;51.70
31113;DHT22;17763;48.730;9.136;2023-06-04T12:52:13;22.80;50.60
31113;DHT22;17763;48.730;9.136;2023-06-04T12:54:44;22.80;51.60
31113;DHT22;17763;48.730;9.136;2023-06-04T12:57:12;22.80;50.50
31113;DHT22;17763;48.730;9.136;2023-06-04T12:59:38;22.80;50.60
31113;DHT22;17763;48.730;9.136;2023-06-04T13:02:03;22.80;49.90
31113;DHT22;17763;48.730;9.136;2023-06-04T13:04:29;22.80;50.60
31113;DHT22;17763;48.730;9.136;2023-06-04T13:06:56;22.90;49.80
31113;DHT22;17763;48.730;9.136;2023-06-04T13:09:25;22.90;51.10
31113;DHT22;17763;48.730;9.136;2023-06-04T13:11:50;23.00;50.60
31113;DHT22;17763;48.730;9.136;2023-06-04T13:14:18;23.10;51.30
31113;DHT22;17763;48.730;9.136;2023-06-04T13:16:47;23.10;50.10
31113;DHT22;17763;48.730;9.136;2023-06-04T13:19:14;23.10;49.30
31113;DHT22;17763;48.730;9.136;2023-06-04T13:21:39;23.20;49.80
31113;DHT22;17763;48.730;9.136;2023-06-04T13:24:05;23.30;50.00
31113;DHT22;17763;48.730;9.136;2023-06-04T13:26:35;23.30;48.40
31113;DHT22;17763;48.730;9.136;2023-06-04T13:29:01;23.40;48.70
31113;DHT22;17763;48.730;9.136;2023-06-04T13:31:26;23.40;47.00
31113;DHT22;17763;48.730;9.136;2023-06-04T13:33:52;23.40;47.10
31113;DHT22;17763;48.730;9.136;2023-06-04T13:36:18;23.40;48.00
31113;DHT22;17763;48.730;9.136;2023-06-04T13:38:46;23.50;48.40
31113;DHT22;17763;48.730;9.136;2023-06-04T13:41:12;23.50;47.50
31113;DHT22;17763;48.730;9.136;2023-06-04T13:43:40;23.60;47.10
31113;DHT22;17763;48.730;9.136;2023-06-04T13:46:06;23.70;47.00
31113;DHT22;17763;48.730;9.136;2023-06-04T13:48:34;23.70;46.30
31113;DHT22;17763;48.730;9.136;2023-06-04T13:51:04;23.70;46.50
31113;DHT22;17763;48.730;9.136;2023-06-04T13:53:32;23.70;46.00
31113;DHT22;17763;48.730;9.136;2023-06-04T13:55:58;23.80;46.60
31113;DHT22;17763;48.730;9.136;2023-06-04T13:58:25;23.90;44.00
31113;DHT22;17763;48.730;9.136;2023-06-04T14:00:51;23.90;43.60
31113;DHT22;17763;48.730;9.136;2023-06-04T14:03:17;23.90;43.60
31113;DHT22;17763;48.730;9.136;2023-06-04T14:05:45;24.20;45.70
31113;DHT22;17763;48.730;9.136;2023-06-04T14:08:11;24.00;46.20
31113;DHT22;17763;48.730;9.136;2023-06-04T14:10:37;24.20;46.60
31113;DHT22;17763;48.730;9.136;2023-06-04T14:13:06;24.30;45.60
31113;DHT22;17763;48.730;9.136;2023-06-04T14:15:34;24.50;44.90
31113;DHT22;17763;48.730;9.136;2023-06-04T14:18:04;24.50;44.70
31113;DHT22;17763;48.730;9.136;2023-06-04T14:20:30;24.50;44.30
31113;DHT22;17763;48.730;9.136;2023-06-04T14:22:55;24.40;46.20
31113;DHT22;17763;48.730;9.136;2023-06-04T14:25:21;24.60;44.10
31113;DHT22;17763;48.730;9.136;2023-06-04T14:27:49;24.60;44.80
31113;DHT22;17763;48.730;9.136;2023-06-04T14:30:16;24.80;44.40
31113;DHT22;17763;48.730;9.136;2023-06-04T14:32:41;25.00;44.90
31113;DHT22;17763;48.730;9.136;2023-06-04T14:35:08;25.20;43.50
31113;DHT22;17763;48.730;9.136;2023-06-04T14:37:33;25.30;43.90
31113;DHT22;17763;48.730;9.136;2023-06-04T14:39:59;25.40;43.20
31113;DHT22;17763;48.730;9.136;2023-06-04T14:42:25;25.30;42.10
31113;DHT22;17763;48.730;9.136;2023-06-04T14:44:51;25.20;42.10
31113;DHT22;17763;48.730;9.136;2023-06-04T14:47:18;25.10;42.20
31113;DHT22;17763;48.730;9.136;2023-06-04T14:49:46;24.90;42.50
31113;DHT22;17763;48.730;9.136;2023-06-04T14:52:12;24.90;42.80
31113;DHT22;17763;48.730;9.136;2023-06-04T14:54:41;24.90;44.00
31113;DHT22;17763;48.730;9.136;2023-06-04T14:57:07;25.00;43.40
31113;DHT22;17763;48.730;9.136;2023-06-04T14:59:32;25.20;44.10
31113;DHT22;17763;48.730;9.136;2023-06-04T15:02:01;25.40;41.70
31113;DHT22;17763;48.730;9.136;2023-06-04T15:04:29;25.30;42.50
31113;DHT22;17763;48.730;9.136;2023-06-04T15:06:55;25.20;43.50
31113;DHT22;17763;48.730;9.136;2023-06-04T15:09:20;25.30;43.80
31113;DHT22;17763;48.730;9.136;2023-06-04T15:11:46;25.50;42.40
31113;DHT22;17763;48.730;9.136;2023-06-04T15:14:16;25.80;42.90
31113;DHT22;17763;48.730;9.136;2023-06-04T15:16:42;25.90;41.30
31113;DHT22;17763;48.730;9.136;2023-06-04T15:19:09;25.90;40.60
31113;DHT22;17763;48.730;9.136;2023-06-04T15:21:35;26.00;42.30
31113;DHT22;17763;48.730;9.136;2023-06-04T15:24:00;26.00;40.40
31113;DHT22;17763;48.730;9.136;2023-06-04T15:26:28;26.10;41.30
31113;DHT22;17763;48.730;9.136;2023-06-04T15:28:56;26.30;41.70
31113;DHT22;17763;48.730;9.136;2023-06-04T15:31:22;26.40;41.30
31113;DHT22;17763;48.730;9.136;2023-06-04T15:33:47;26.70;42.00
31113;DHT22;17763;48.730;9.136;2023-06-04T15:36:13;26.80;41.90
31113;DHT22;17763;48.730;9.136;2023-06-04T15:38:41;27.00;42.30
31113;DHT22;17763;48.730;9.136;2023-06-04T15:41:09;26.90;40.10
31113;DHT22;17763;48.730;9.136;2023-06-04T15:43:34;26.90;40.00